sensor_id;sensor_type;location;lat;lon;timestamp;P1;durP1;ratioP1;P2;durP2;ratioP2
77466;SDS011;66564;42.482;25.548;2023-04-25T00:02:21;18.83;;;10.90;;
77466;SDS011;66564;42.482;25.548;2023-04-25T00:04:47;19.08;;;10.00;;
77466;SDS011;66564;42.482;25.548;2023-04-25T00:07:14;14.30;;;10.18;;
77466;SDS011;66564;42.482;25.548;2023-04-25T00:09:39;15.77;;;10.63;;
77466;SDS011;66564;42.482;25.548;2023-04-25T00:12:05;15.88;;;10.60;;
77466;SDS011;66564;42.482;25.548;2023-04-25T00:14:31;17.73;;;10.20;;
77466;SDS011;66564;42.482;25.548;2023-04-25T00:16:59;13.77;;;9.48;;
77466;SDS011;66564;42.482;25.548;2023-04-25T00:19:25;18.33;;;10.77;;
77466;SDS011;66564;42.482;25.548;2023-04-25T00:21:51;16.95;;;11.32;;
77466;SDS011;66564;42.482;25.548;2023-04-25T00:24:19;20.13;;;10.60;;
77466;SDS011;66564;42.482;25.548;2023-04-25T00:26:44;22.13;;;12.10;;
77466;SDS011;66564;42.482;25.548;2023-04-25T00:29:10;20.95;;;11.45;;
77466;SDS011;66564;42.482;25.548;2023-04-25T00:31:36;16.65;;;12.10;;
77466;SDS011;66564;42.482;25.548;2023-04-25T00:34:01;16.27;;;11.48;;
77466;SDS011;66564;42.482;25.548;2023-04-25T00:36:27;17.30;;;11.90;;
77466;SDS011;66564;42.482;25.548;2023-04-25T00:38:53;15.07;;;9.05;;
77466;SDS011;66564;42.482;25.548;2023-04-25T00:41:20;11.45;;;7.78;;
77466;SDS011;66564;42.482;25.548;2023-04-25T00:43:46;10.25;;;7.00;;
77466;SDS011;66564;42.482;25.548;2023-04-25T00:46:13;15.68;;;6.60;;
77466;SDS011;66564;42.482;25.548;2023-04-25T00:48:39;8.90;;;6.35;;
77466;SDS011;66564;42.482;25.548;2023-04-25T00:51:04;8.45;;;5.88;;
77466;SDS011;66564;42.482;25.548;2023-04-25T00:53:31;10.77;;;6.13;;
77466;SDS011;66564;42.482;25.548;2023-04-25T00:55:57;9.93;;;7.03;;
77466;SDS011;66564;42.482;25.548;2023-04-25T00:58:23;8.82;;;7.18;;
77466;SDS011;66564;42.482;25.548;2023-04-25T01:00:50;8.52;;;5.90;;
77466;SDS011;66564;42.482;25.548;2023-04-25T01:03:19;9.15;;;5.10;;
77466;SDS011;66564;42.482;25.548;2023-04-25T01:05:47;6.80;;;4.72;;
77466;SDS011;66564;42.482;25.548;2023-04-25T01:08:13;7.90;;;4.68;;
77466;SDS011;66564;42.482;25.548;2023-04-25T01:10:39;6.43;;;3.95;;
77466;SDS011;66564;42.482;25.548;2023-04-25T01:13:05;8.85;;;4.13;;
77466;SDS011;66564;42.482;25.548;2023-04-25T01:15:31;6.20;;;4.75;;
77466;SDS011;66564;42.482;25.548;2023-04-25T01:17:57;5.85;;;4.60;;
77466;SDS011;66564;42.482;25.548;2023-04-25T01:20:23;6.63;;;4.32;;
77466;SDS011;66564;42.482;25.548;2023-04-25T01:22:50;6.35;;;4.25;;
77466;SDS011;66564;42.482;25.548;2023-04-25T01:25:16;5.75;;;3.90;;
77466;SDS011;66564;42.482;25.548;2023-04-25T01:27:42;6.55;;;3.58;;
77466;SDS011;66564;42.482;25.548;2023-04-25T01:30:07;7.35;;;3.97;;
77466;SDS011;66564;42.482;25.548;2023-04-25T01:32:34;6.35;;;4.10;;
77466;SDS011;66564;42.482;25.548;2023-04-25T01:35:06;5.88;;;3.85;;
77466;SDS011;66564;42.482;25.548;2023-04-25T01:37:37;5.63;;;4.13;;
77466;SDS011;66564;42.482;25.548;2023-04-25T01:40:04;4.20;;;3.40;;
77466;SDS011;66564;42.482;25.548;2023-04-25T01:42:33;4.70;;;3.45;;
77466;SDS011;66564;42.482;25.548;2023-04-25T01:45:00;6.18;;;3.20;;
77466;SDS011;66564;42.482;25.548;2023-04-25T01:47:26;4.60;;;3.30;;
77466;SDS011;66564;42.482;25.548;2023-04-25T01:49:51;4.90;;;3.55;;
77466;SDS011;66564;42.482;25.548;2023-04-25T01:52:17;4.82;;;3.35;;
77466;SDS011;66564;42.482;25.548;2023-04-25T01:54:43;4.50;;;3.40;;
77466;SDS011;66564;42.482;25.548;2023-04-25T01:57:13;4.72;;;3.28;;
77466;SDS011;66564;42.482;25.548;2023-04-25T01:59:39;5.20;;;3.38;;
77466;SDS011;66564;42.482;25.548;2023-04-25T02:02:05;4.78;;;3.15;;
77466;SDS011;66564;42.482;25.548;2023-04-25T02:04:31;4.13;;;3.00;;
77466;SDS011;66564;42.482;25.548;2023-04-25T02:06:57;6.70;;;3.15;;
77466;SDS011;66564;42.482;25.548;2023-04-25T02:09:23;4.45;;;3.03;;
77466;SDS011;66564;42.482;25.548;2023-04-25T02:11:48;10.07;;;3.58;;
77466;SDS011;66564;42.482;25.548;2023-04-25T02:14:14;3.65;;;2.90;;
77466;SDS011;66564;42.482;25.548;2023-04-25T02:16:39;4.00;;;3.00;;
77466;SDS011;66564;42.482;25.548;2023-04-25T02:19:05;5.10;;;3.10;;
77466;SDS011;66564;42.482;25.548;2023-04-25T02:21:31;3.47;;;2.55;;
77466;SDS011;66564;42.482;25.548;2023-04-25T02:23:57;4.28;;;2.70;;
77466;SDS011;66564;42.482;25.548;2023-04-25T02:26:22;3.15;;;2.50;;
77466;SDS011;66564;42.482;25.548;2023-04-25T02:28:49;3.42;;;2.60;;
77466;SDS011;66564;42.482;25.548;2023-04-25T02:31:15;7.22;;;3.28;;
77466;SDS011;66564;42.482;25.548;2023-04-25T02:33:40;4.95;;;3.50;;
77466;SDS011;66564;42.482;25.548;2023-04-25T02:36:06;5.47;;;4.00;;
77466;SDS011;66564;42.482;25.548;2023-04-25T02:38:32;5.13;;;3.90;;
77466;SDS011;66564;42.482;25.548;2023-04-25T02:40:57;5.50;;;3.28;;
77466;SDS011;66564;42.482;25.548;2023-04-25T02:43:23;5.10;;;3.88;;
77466;SDS011;66564;42.482;25.548;2023-04-25T02:45:49;9.07;;;4.75;;
77466;SDS011;66564;42.482;25.548;2023-04-25T02:48:14;7.10;;;4.50;;
77466;SDS011;66564;42.482;25.548;2023-04-25T02:50:39;6.82;;;4.65;;
77466;SDS011;66564;42.482;25.548;2023-04-25T02:53:05;8.07;;;4.60;;
77466;SDS011;66564;42.482;25.548;2023-04-25T02:55:30;5.70;;;4.25;;
77466;SDS011;66564;42.482;25.548;2023-04-25T02:57:56;7.00;;;3.80;;
77466;SDS011;66564;42.482;25.548;2023-04-25T03:00:22;5.65;;;3.72;;
77466;SDS011;66564;42.482;25.548;2023-04-25T03:02:47;5.65;;;3.90;;
77466;SDS011;66564;42.482;25.548;2023-04-25T03:05:13;6.63;;;4.53;;
77466;SDS011;66564;42.482;25.548;2023-04-25T03:07:39;9.80;;;5.03;;
77466;SDS011;66564;42.482;25.548;2023-04-25T03:10:05;6.65;;;5.03;;
77466;SDS011;66564;42.482;25.548;2023-04-25T03:12:32;12.05;;;6.85;;
77466;SDS011;66564;42.482;25.548;2023-04-25T03:14:57;12.13;;;7.18;;
77466;SDS011;66564;42.482;25.548;2023-04-25T03:17:23;8.88;;;5.43;;
77466;SDS011;66564;42.482;25.548;2023-04-25T03:19:48;8.77;;;4.45;;
77466;SDS011;66564;42.482;25.548;2023-04-25T03:22:14;6.82;;;4.75;;
77466;SDS011;66564;42.482;25.548;2023-04-25T03:24:39;7.38;;;4.32;;
77466;SDS011;66564;42.482;25.548;2023-04-25T03:27:05;4.00;;;2.70;;
77466;SDS011;66564;42.482;25.548;2023-04-25T03:29:31;4.78;;;3.10;;
77466;SDS011;66564;42.482;25.548;2023-04-25T03:31:56;3.83;;;2.65;;
77466;SDS011;66564;42.482;25.548;2023-04-25T03:34:22;3.50;;;2.75;;
77466;SDS011;66564;42.482;25.548;2023-04-25T03:36:48;6.72;;;3.80;;
77466;SDS011;66564;42.482;25.548;2023-04-25T03:39:14;5.00;;;3.70;;
77466;SDS011;66564;42.482;25.548;2023-04-25T03:41:40;5.25;;;3.85;;
77466;SDS011;66564;42.482;25.548;2023-04-25T03:44:06;5.13;;;2.90;;
77466;SDS011;66564;42.482;25.548;2023-04-25T03:46:31;4.82;;;3.58;;
77466;SDS011;66564;42.482;25.548;2023-04-25T03:48:57;7.47;;;4.38;;
77466;SDS011;66564;42.482;25.548;2023-04-25T03:51:24;5.00;;;3.50;;
77466;SDS011;66564;42.482;25.548;2023-04-25T03:53:50;7.68;;;4.32;;
77466;SDS011;66564;42.482;25.548;2023-04-25T03:56:16;4.43;;;3.10;;
77466;SDS011;66564;42.482;25.548;2023-04-25T03:58:42;4.30;;;2.90;;
77466;SDS011;66564;42.482;25.548;2023-04-25T04:01:07;5.72;;;2.67;;
77466;SDS011;66564;42.482;25.548;2023-04-25T04:03:36;3.53;;;2.30;;
77466;SDS011;66564;42.482;25.548;2023-04-25T04:06:02;3.20;;;2.60;;
77466;SDS011;66564;42.482;25.548;2023-04-25T04:08:29;4.25;;;3.00;;
77466;SDS011;66564;42.482;25.548;2023-04-25T04:10:55;5.53;;;3.33;;
77466;SDS011;66564;42.482;25.548;2023-04-25T04:13:21;5.30;;;2.95;;
77466;SDS011;66564;42.482;25.548;2023-04-25T04:15:47;6.00;;;3.53;;
77466;SDS011;66564;42.482;25.548;2023-04-25T04:18:13;4.68;;;3.40;;
77466;SDS011;66564;42.482;25.548;2023-04-25T04:20:38;4.97;;;2.80;;
77466;SDS011;66564;42.482;25.548;2023-04-25T04:23:04;6.88;;;2.80;;
77466;SDS011;66564;42.482;25.548;2023-04-25T04:25:30;5.90;;;3.00;;
77466;SDS011;66564;42.482;25.548;2023-04-25T04:27:56;4.70;;;3.10;;
77466;SDS011;66564;42.482;25.548;2023-04-25T04:30:22;5.63;;;3.58;;
77466;SDS011;66564;42.482;25.548;2023-04-25T04:32:54;7.60;;;3.78;;
77466;SDS011;66564;42.482;25.548;2023-04-25T04:35:21;5.10;;;3.75;;
77466;SDS011;66564;42.482;25.548;2023-04-25T04:37:47;5.20;;;3.75;;
77466;SDS011;66564;42.482;25.548;2023-04-25T04:40:13;5.70;;;3.70;;
77466;SDS011;66564;42.482;25.548;2023-04-25T04:45:08;3.28;;;2.63;;
77466;SDS011;66564;42.482;25.548;2023-04-25T04:47:35;5.60;;;3.00;;
77466;SDS011;66564;42.482;25.548;2023-04-25T04:50:01;5.43;;;3.13;;
77466;SDS011;66564;42.482;25.548;2023-04-25T04:52:36;4.38;;;3.15;;
77466;SDS011;66564;42.482;25.548;2023-04-25T04:55:03;4.90;;;2.92;;
77466;SDS011;66564;42.482;25.548;2023-04-25T04:57:30;5.65;;;2.90;;
77466;SDS011;66564;42.482;25.548;2023-04-25T04:59:57;3.83;;;2.65;;
77466;SDS011;66564;42.482;25.548;2023-04-25T05:02:23;8.02;;;2.75;;
77466;SDS011;66564;42.482;25.548;2023-04-25T05:04:49;3.47;;;2.72;;
77466;SDS011;66564;42.482;25.548;2023-04-25T05:07:16;3.90;;;2.47;;
77466;SDS011;66564;42.482;25.548;2023-04-25T05:09:42;3.10;;;2.30;;
77466;SDS011;66564;42.482;25.548;2023-04-25T05:12:07;5.53;;;2.35;;
77466;SDS011;66564;42.482;25.548;2023-04-25T05:14:33;4.75;;;3.25;;
77466;SDS011;66564;42.482;25.548;2023-04-25T05:16:59;4.32;;;2.85;;
77466;SDS011;66564;42.482;25.548;2023-04-25T05:19:25;5.38;;;3.47;;
77466;SDS011;66564;42.482;25.548;2023-04-25T05:21:51;6.18;;;3.35;;
77466;SDS011;66564;42.482;25.548;2023-04-25T05:24:17;6.32;;;4.38;;
77466;SDS011;66564;42.482;25.548;2023-04-25T05:26:43;13.10;;;8.30;;
77466;SDS011;66564;42.482;25.548;2023-04-25T05:29:08;13.65;;;9.23;;
77466;SDS011;66564;42.482;25.548;2023-04-25T05:31:35;12.93;;;8.43;;
77466;SDS011;66564;42.482;25.548;2023-04-25T05:34:01;16.10;;;11.32;;
77466;SDS011;66564;42.482;25.548;2023-04-25T05:36:27;13.27;;;7.78;;
77466;SDS011;66564;42.482;25.548;2023-04-25T05:38:53;12.27;;;6.95;;
77466;SDS011;66564;42.482;25.548;2023-04-25T05:41:18;10.93;;;6.50;;
77466;SDS011;66564;42.482;25.548;2023-04-25T05:43:44;11.00;;;5.90;;
77466;SDS011;66564;42.482;25.548;2023-04-25T05:46:12;10.10;;;5.30;;
77466;SDS011;66564;42.482;25.548;2023-04-25T05:48:38;15.20;;;9.27;;
77466;SDS011;66564;42.482;25.548;2023-04-25T05:51:04;15.27;;;10.48;;
77466;SDS011;66564;42.482;25.548;2023-04-25T05:53:30;15.05;;;10.63;;
77466;SDS011;66564;42.482;25.548;2023-04-25T05:55:56;13.68;;;9.88;;
77466;SDS011;66564;42.482;25.548;2023-04-25T05:58:21;19.23;;;10.57;;
77466;SDS011;66564;42.482;25.548;2023-04-25T06:00:47;14.57;;;9.63;;
77466;SDS011;66564;42.482;25.548;2023-04-25T06:03:13;12.95;;;9.50;;
77466;SDS011;66564;42.482;25.548;2023-04-25T06:05:42;13.57;;;8.90;;
77466;SDS011;66564;42.482;25.548;2023-04-25T06:08:08;12.00;;;8.00;;
77466;SDS011;66564;42.482;25.548;2023-04-25T06:10:35;13.85;;;8.10;;
77466;SDS011;66564;42.482;25.548;2023-04-25T06:13:01;9.20;;;7.05;;
77466;SDS011;66564;42.482;25.548;2023-04-25T06:15:26;16.40;;;8.02;;
77466;SDS011;66564;42.482;25.548;2023-04-25T06:17:52;13.77;;;7.68;;
77466;SDS011;66564;42.482;25.548;2023-04-25T06:20:17;10.23;;;7.38;;
77466;SDS011;66564;42.482;25.548;2023-04-25T06:22:43;9.50;;;6.85;;
77466;SDS011;66564;42.482;25.548;2023-04-25T06:25:09;10.50;;;7.57;;
77466;SDS011;66564;42.482;25.548;2023-04-25T06:27:34;11.13;;;8.63;;
77466;SDS011;66564;42.482;25.548;2023-04-25T06:30:00;11.40;;;8.18;;
77466;SDS011;66564;42.482;25.548;2023-04-25T06:32:25;18.10;;;9.43;;
77466;SDS011;66564;42.482;25.548;2023-04-25T06:34:52;14.73;;;9.25;;
77466;SDS011;66564;42.482;25.548;2023-04-25T06:37:18;14.73;;;7.95;;
77466;SDS011;66564;42.482;25.548;2023-04-25T06:39:44;15.38;;;8.82;;
77466;SDS011;66564;42.482;25.548;2023-04-25T06:42:09;17.25;;;9.07;;
77466;SDS011;66564;42.482;25.548;2023-04-25T06:44:35;15.48;;;8.43;;
77466;SDS011;66564;42.482;25.548;2023-04-25T06:47:00;14.50;;;8.75;;
77466;SDS011;66564;42.482;25.548;2023-04-25T06:49:26;13.27;;;8.43;;
77466;SDS011;66564;42.482;25.548;2023-04-25T06:51:51;10.40;;;7.95;;
77466;SDS011;66564;42.482;25.548;2023-04-25T06:54:17;10.82;;;7.43;;
77466;SDS011;66564;42.482;25.548;2023-04-25T06:56:42;13.85;;;7.68;;
77466;SDS011;66564;42.482;25.548;2023-04-25T06:59:08;10.27;;;6.78;;
77466;SDS011;66564;42.482;25.548;2023-04-25T07:01:34;9.80;;;6.78;;
77466;SDS011;66564;42.482;25.548;2023-04-25T07:04:00;15.15;;;8.57;;
77466;SDS011;66564;42.482;25.548;2023-04-25T07:06:25;10.30;;;6.80;;
77466;SDS011;66564;42.482;25.548;2023-04-25T07:08:52;10.75;;;6.28;;
77466;SDS011;66564;42.482;25.548;2023-04-25T07:11:18;13.20;;;6.90;;
77466;SDS011;66564;42.482;25.548;2023-04-25T07:13:44;9.57;;;5.95;;
77466;SDS011;66564;42.482;25.548;2023-04-25T07:16:10;8.43;;;5.13;;
77466;SDS011;66564;42.482;25.548;2023-04-25T07:18:35;6.68;;;4.88;;
77466;SDS011;66564;42.482;25.548;2023-04-25T07:21:01;14.27;;;5.60;;
77466;SDS011;66564;42.482;25.548;2023-04-25T07:23:27;7.20;;;4.38;;
77466;SDS011;66564;42.482;25.548;2023-04-25T07:25:55;6.00;;;5.10;;
77466;SDS011;66564;42.482;25.548;2023-04-25T07:28:21;7.55;;;5.13;;
77466;SDS011;66564;42.482;25.548;2023-04-25T07:30:46;7.97;;;4.32;;
77466;SDS011;66564;42.482;25.548;2023-04-25T07:33:12;7.82;;;4.80;;
77466;SDS011;66564;42.482;25.548;2023-04-25T07:35:37;6.50;;;4.72;;
77466;SDS011;66564;42.482;25.548;2023-04-25T07:38:03;6.55;;;4.93;;
77466;SDS011;66564;42.482;25.548;2023-04-25T07:40:29;8.50;;;4.93;;
77466;SDS011;66564;42.482;25.548;2023-04-25T07:42:55;7.65;;;4.25;;
77466;SDS011;66564;42.482;25.548;2023-04-25T07:45:20;4.90;;;3.92;;
77466;SDS011;66564;42.482;25.548;2023-04-25T07:47:47;5.55;;;4.03;;
77466;SDS011;66564;42.482;25.548;2023-04-25T07:50:13;5.00;;;4.20;;
77466;SDS011;66564;42.482;25.548;2023-04-25T07:52:38;7.20;;;4.10;;
77466;SDS011;66564;42.482;25.548;2023-04-25T07:55:04;6.70;;;4.35;;
77466;SDS011;66564;42.482;25.548;2023-04-25T07:57:30;5.38;;;4.40;;
77466;SDS011;66564;42.482;25.548;2023-04-25T07:59:55;5.22;;;3.78;;
77466;SDS011;66564;42.482;25.548;2023-04-25T08:02:21;6.38;;;3.70;;
77466;SDS011;66564;42.482;25.548;2023-04-25T08:04:47;5.95;;;3.80;;
77466;SDS011;66564;42.482;25.548;2023-04-25T08:07:14;4.95;;;3.90;;
77466;SDS011;66564;42.482;25.548;2023-04-25T08:09:40;4.20;;;3.42;;
77466;SDS011;66564;42.482;25.548;2023-04-25T08:12:05;8.32;;;3.70;;
77466;SDS011;66564;42.482;25.548;2023-04-25T08:14:31;5.10;;;3.17;;
77466;SDS011;66564;42.482;25.548;2023-04-25T08:17:01;6.45;;;2.95;;
77466;SDS011;66564;42.482;25.548;2023-04-25T08:19:28;7.35;;;3.17;;
77466;SDS011;66564;42.482;25.548;2023-04-25T08:21:56;4.00;;;2.80;;
77466;SDS011;66564;42.482;25.548;2023-04-25T08:24:31;8.23;;;3.35;;
77466;SDS011;66564;42.482;25.548;2023-04-25T08:26:59;4.63;;;3.17;;
77466;SDS011;66564;42.482;25.548;2023-04-25T08:29:25;5.70;;;3.70;;
77466;SDS011;66564;42.482;25.548;2023-04-25T08:31:51;5.82;;;3.60;;
77466;SDS011;66564;42.482;25.548;2023-04-25T08:34:18;5.70;;;3.38;;
77466;SDS011;66564;42.482;25.548;2023-04-25T08:36:43;6.97;;;3.53;;
77466;SDS011;66564;42.482;25.548;2023-04-25T08:39:09;10.00;;;4.35;;
77466;SDS011;66564;42.482;25.548;2023-04-25T08:41:38;11.15;;;3.90;;
77466;SDS011;66564;42.482;25.548;2023-04-25T08:44:06;6.18;;;3.42;;
77466;SDS011;66564;42.482;25.548;2023-04-25T08:46:35;5.47;;;3.80;;
77466;SDS011;66564;42.482;25.548;2023-04-25T08:49:03;4.30;;;3.40;;
77466;SDS011;66564;42.482;25.548;2023-04-25T08:51:31;6.53;;;3.47;;
77466;SDS011;66564;42.482;25.548;2023-04-25T08:54:00;4.63;;;3.65;;
77466;SDS011;66564;42.482;25.548;2023-04-25T08:56:40;6.05;;;3.20;;
77466;SDS011;66564;42.482;25.548;2023-04-25T08:59:09;5.65;;;3.58;;
77466;SDS011;66564;42.482;25.548;2023-04-25T09:01:42;6.10;;;3.50;;
77466;SDS011;66564;42.482;25.548;2023-04-25T09:04:08;10.75;;;3.70;;
77466;SDS011;66564;42.482;25.548;2023-04-25T09:06:33;6.10;;;3.50;;
77466;SDS011;66564;42.482;25.548;2023-04-25T09:09:07;5.43;;;3.22;;
77466;SDS011;66564;42.482;25.548;2023-04-25T09:11:38;5.50;;;3.10;;
77466;SDS011;66564;42.482;25.548;2023-04-25T09:19:28;5.55;;;3.33;;
77466;SDS011;66564;42.482;25.548;2023-04-25T09:21:56;7.05;;;3.67;;
77466;SDS011;66564;42.482;25.548;2023-04-25T09:24:36;7.07;;;3.58;;
77466;SDS011;66564;42.482;25.548;2023-04-25T09:27:07;6.18;;;3.53;;
77466;SDS011;66564;42.482;25.548;2023-04-25T09:29:35;6.05;;;3.72;;
77466;SDS011;66564;42.482;25.548;2023-04-25T09:32:13;4.90;;;3.58;;
77466;SDS011;66564;42.482;25.548;2023-04-25T09:34:47;4.22;;;3.33;;
77466;SDS011;66564;42.482;25.548;2023-04-25T09:37:18;3.90;;;3.50;;
77466;SDS011;66564;42.482;25.548;2023-04-25T09:39:45;5.82;;;3.58;;
77466;SDS011;66564;42.482;25.548;2023-04-25T09:42:13;4.97;;;3.00;;
77466;SDS011;66564;42.482;25.548;2023-04-25T09:44:45;4.88;;;3.35;;
77466;SDS011;66564;42.482;25.548;2023-04-25T09:47:12;5.00;;;3.30;;
77466;SDS011;66564;42.482;25.548;2023-04-25T09:49:41;6.28;;;3.75;;
77466;SDS011;66564;42.482;25.548;2023-04-25T09:52:08;5.22;;;4.03;;
77466;SDS011;66564;42.482;25.548;2023-04-25T09:54:34;7.38;;;4.40;;
77466;SDS011;66564;42.482;25.548;2023-04-25T09:57:08;7.50;;;4.10;;
77466;SDS011;66564;42.482;25.548;2023-04-25T09:59:38;7.78;;;4.03;;
77466;SDS011;66564;42.482;25.548;2023-04-25T10:02:07;11.13;;;6.45;;
77466;SDS011;66564;42.482;25.548;2023-04-25T10:04:34;10.93;;;7.15;;
77466;SDS011;66564;42.482;25.548;2023-04-25T10:07:02;13.45;;;6.22;;
77466;SDS011;66564;42.482;25.548;2023-04-25T10:09:31;13.77;;;6.53;;
77466;SDS011;66564;42.482;25.548;2023-04-25T10:14:28;24.30;;;8.32;;
77466;SDS011;66564;42.482;25.548;2023-04-25T10:16:55;13.90;;;6.90;;
77466;SDS011;66564;42.482;25.548;2023-04-25T10:19:23;13.85;;;7.18;;
77466;SDS011;66564;42.482;25.548;2023-04-25T10:21:54;11.30;;;6.88;;
77466;SDS011;66564;42.482;25.548;2023-04-25T10:24:25;13.73;;;5.97;;
77466;SDS011;66564;42.482;25.548;2023-04-25T10:26:52;11.15;;;6.13;;
77466;SDS011;66564;42.482;25.548;2023-04-25T10:29:24;17.20;;;6.20;;
77466;SDS011;66564;42.482;25.548;2023-04-25T10:31:50;16.88;;;5.75;;
77466;SDS011;66564;42.482;25.548;2023-04-25T10:34:17;7.70;;;4.85;;
77466;SDS011;66564;42.482;25.548;2023-04-25T10:36:44;9.45;;;5.93;;
77466;SDS011;66564;42.482;25.548;2023-04-25T10:39:15;9.43;;;6.15;;
77466;SDS011;66564;42.482;25.548;2023-04-25T10:41:52;7.95;;;5.18;;
77466;SDS011;66564;42.482;25.548;2023-04-25T10:44:21;14.60;;;7.53;;
77466;SDS011;66564;42.482;25.548;2023-04-25T10:46:46;12.00;;;6.63;;
77466;SDS011;66564;42.482;25.548;2023-04-25T10:49:28;11.27;;;6.68;;
77466;SDS011;66564;42.482;25.548;2023-04-25T10:52:17;12.27;;;6.70;;
77466;SDS011;66564;42.482;25.548;2023-04-25T10:59:57;12.63;;;7.28;;
77466;SDS011;66564;42.482;25.548;2023-04-25T11:02:28;10.63;;;6.43;;
77466;SDS011;66564;42.482;25.548;2023-04-25T11:04:53;9.80;;;6.03;;
77466;SDS011;66564;42.482;25.548;2023-04-25T11:07:26;14.75;;;6.28;;
77466;SDS011;66564;42.482;25.548;2023-04-25T11:10:01;8.55;;;6.40;;
77466;SDS011;66564;42.482;25.548;2023-04-25T11:12:29;9.52;;;5.20;;
77466;SDS011;66564;42.482;25.548;2023-04-25T11:15:00;8.52;;;5.80;;
77466;SDS011;66564;42.482;25.548;2023-04-25T11:17:26;8.27;;;5.28;;
77466;SDS011;66564;42.482;25.548;2023-04-25T11:19:53;8.95;;;5.30;;
77466;SDS011;66564;42.482;25.548;2023-04-25T11:22:19;8.57;;;5.15;;
77466;SDS011;66564;42.482;25.548;2023-04-25T11:24:46;8.52;;;5.68;;
77466;SDS011;66564;42.482;25.548;2023-04-25T11:27:12;8.90;;;4.72;;
77466;SDS011;66564;42.482;25.548;2023-04-25T11:29:37;8.70;;;5.80;;
77466;SDS011;66564;42.482;25.548;2023-04-25T11:32:03;9.85;;;5.05;;
77466;SDS011;66564;42.482;25.548;2023-04-25T11:34:30;8.57;;;4.60;;
77466;SDS011;66564;42.482;25.548;2023-04-25T11:36:57;8.65;;;5.38;;
77466;SDS011;66564;42.482;25.548;2023-04-25T11:39:24;7.53;;;4.40;;
77466;SDS011;66564;42.482;25.548;2023-04-25T11:41:51;7.80;;;4.50;;
77466;SDS011;66564;42.482;25.548;2023-04-25T11:44:17;6.95;;;5.30;;
77466;SDS011;66564;42.482;25.548;2023-04-25T11:46:44;7.47;;;4.97;;
77466;SDS011;66564;42.482;25.548;2023-04-25T11:49:10;6.13;;;4.70;;
77466;SDS011;66564;42.482;25.548;2023-04-25T11:51:42;5.53;;;4.60;;
77466;SDS011;66564;42.482;25.548;2023-04-25T11:54:10;5.95;;;4.40;;
77466;SDS011;66564;42.482;25.548;2023-04-25T11:56:36;7.28;;;5.07;;
77466;SDS011;66564;42.482;25.548;2023-04-25T11:59:03;8.18;;;5.60;;
77466;SDS011;66564;42.482;25.548;2023-04-25T12:01:33;8.00;;;5.40;;
77466;SDS011;66564;42.482;25.548;2023-04-25T12:04:19;7.75;;;5.60;;
77466;SDS011;66564;42.482;25.548;2023-04-25T12:06:49;12.00;;;5.20;;
77466;SDS011;66564;42.482;25.548;2023-04-25T12:09:17;8.73;;;4.90;;
77466;SDS011;66564;42.482;25.548;2023-04-25T12:11:53;9.52;;;4.75;;
77466;SDS011;66564;42.482;25.548;2023-04-25T12:16:52;11.23;;;6.35;;
77466;SDS011;66564;42.482;25.548;2023-04-25T12:19:22;7.13;;;4.88;;
77466;SDS011;66564;42.482;25.548;2023-04-25T12:21:47;7.10;;;4.43;;
77466;SDS011;66564;42.482;25.548;2023-04-25T12:26:47;7.60;;;4.80;;
77466;SDS011;66564;42.482;25.548;2023-04-25T12:29:49;5.38;;;4.55;;
77466;SDS011;66564;42.482;25.548;2023-04-25T12:32:16;7.05;;;4.75;;
77466;SDS011;66564;42.482;25.548;2023-04-25T12:34:42;10.25;;;6.10;;
77466;SDS011;66564;42.482;25.548;2023-04-25T12:37:08;7.55;;;5.13;;
77466;SDS011;66564;42.482;25.548;2023-04-25T12:39:34;9.40;;;4.90;;
77466;SDS011;66564;42.482;25.548;2023-04-25T12:42:00;5.53;;;4.03;;
77466;SDS011;66564;42.482;25.548;2023-04-25T12:44:25;5.80;;;4.05;;
77466;SDS011;66564;42.482;25.548;2023-04-25T12:46:51;5.10;;;4.07;;
77466;SDS011;66564;42.482;25.548;2023-04-25T12:49:17;5.18;;;3.92;;
77466;SDS011;66564;42.482;25.548;2023-04-25T12:51:42;5.55;;;4.40;;
77466;SDS011;66564;42.482;25.548;2023-04-25T12:54:08;8.90;;;3.83;;
77466;SDS011;66564;42.482;25.548;2023-04-25T12:56:34;4.32;;;3.70;;
77466;SDS011;66564;42.482;25.548;2023-04-25T12:59:00;6.22;;;4.07;;
77466;SDS011;66564;42.482;25.548;2023-04-25T13:01:28;6.47;;;3.85;;
77466;SDS011;66564;42.482;25.548;2023-04-25T13:03:54;5.28;;;3.85;;
77466;SDS011;66564;42.482;25.548;2023-04-25T13:06:20;5.30;;;3.67;;
77466;SDS011;66564;42.482;25.548;2023-04-25T13:08:45;5.40;;;3.40;;
77466;SDS011;66564;42.482;25.548;2023-04-25T13:11:12;5.97;;;3.97;;
77466;SDS011;66564;42.482;25.548;2023-04-25T13:13:39;7.88;;;4.45;;
77466;SDS011;66564;42.482;25.548;2023-04-25T13:16:05;6.45;;;4.03;;
77466;SDS011;66564;42.482;25.548;2023-04-25T13:18:33;6.40;;;3.58;;
77466;SDS011;66564;42.482;25.548;2023-04-25T13:20:59;6.00;;;3.53;;
77466;SDS011;66564;42.482;25.548;2023-04-25T13:23:25;9.35;;;4.20;;
77466;SDS011;66564;42.482;25.548;2023-04-25T13:25:52;17.05;;;5.40;;
77466;SDS011;66564;42.482;25.548;2023-04-25T13:28:26;15.23;;;4.43;;
77466;SDS011;66564;42.482;25.548;2023-04-25T13:30:53;16.15;;;4.70;;
77466;SDS011;66564;42.482;25.548;2023-04-25T13:33:19;11.70;;;4.82;;
77466;SDS011;66564;42.482;25.548;2023-04-25T13:35:45;9.02;;;4.93;;
77466;SDS011;66564;42.482;25.548;2023-04-25T13:38:22;19.48;;;5.43;;
77466;SDS011;66564;42.482;25.548;2023-04-25T13:40:49;7.03;;;4.60;;
77466;SDS011;66564;42.482;25.548;2023-04-25T13:43:17;7.82;;;4.82;;
77466;SDS011;66564;42.482;25.548;2023-04-25T13:45:44;8.48;;;4.10;;
77466;SDS011;66564;42.482;25.548;2023-04-25T13:48:09;9.15;;;3.80;;
77466;SDS011;66564;42.482;25.548;2023-04-25T13:50:35;7.97;;;4.30;;
77466;SDS011;66564;42.482;25.548;2023-04-25T13:53:01;7.03;;;4.20;;
77466;SDS011;66564;42.482;25.548;2023-04-25T13:55:27;9.23;;;5.75;;
77466;SDS011;66564;42.482;25.548;2023-04-25T13:57:52;6.65;;;4.72;;
77466;SDS011;66564;42.482;25.548;2023-04-25T14:00:18;7.70;;;4.70;;
77466;SDS011;66564;42.482;25.548;2023-04-25T14:02:44;6.43;;;4.30;;
77466;SDS011;66564;42.482;25.548;2023-04-25T14:05:09;7.95;;;4.40;;
77466;SDS011;66564;42.482;25.548;2023-04-25T14:07:35;6.82;;;4.30;;
77466;SDS011;66564;42.482;25.548;2023-04-25T14:10:01;23.73;;;6.32;;
77466;SDS011;66564;42.482;25.548;2023-04-25T14:12:27;12.50;;;5.93;;
77466;SDS011;66564;42.482;25.548;2023-04-25T14:14:53;9.57;;;4.80;;
77466;SDS011;66564;42.482;25.548;2023-04-25T14:17:19;9.38;;;4.75;;
77466;SDS011;66564;42.482;25.548;2023-04-25T14:19:44;10.02;;;4.47;;
77466;SDS011;66564;42.482;25.548;2023-04-25T14:22:13;6.38;;;4.25;;
77466;SDS011;66564;42.482;25.548;2023-04-25T14:24:40;10.32;;;4.22;;
77466;SDS011;66564;42.482;25.548;2023-04-25T14:27:05;6.80;;;3.67;;
77466;SDS011;66564;42.482;25.548;2023-04-25T14:29:31;7.32;;;3.70;;
77466;SDS011;66564;42.482;25.548;2023-04-25T14:31:56;8.32;;;4.82;;
77466;SDS011;66564;42.482;25.548;2023-04-25T14:34:23;10.02;;;3.80;;
77466;SDS011;66564;42.482;25.548;2023-04-25T14:36:50;6.95;;;3.58;;
77466;SDS011;66564;42.482;25.548;2023-04-25T14:39:16;5.00;;;3.85;;
77466;SDS011;66564;42.482;25.548;2023-04-25T14:41:43;11.98;;;4.00;;
77466;SDS011;66564;42.482;25.548;2023-04-25T14:44:09;7.28;;;4.07;;
77466;SDS011;66564;42.482;25.548;2023-04-25T14:46:35;8.00;;;4.93;;
77466;SDS011;66564;42.482;25.548;2023-04-25T14:49:01;8.88;;;5.53;;
77466;SDS011;66564;42.482;25.548;2023-04-25T14:51:29;7.30;;;4.63;;